sensor_id;sensor_type;location;lat;lon;timestamp;P1;durP1;ratioP1;P2;durP2;ratioP2
12163;SDS011;6145;50.192;10.064;2023-04-08T05:38:30;10.77;;;8.57;;
12163;SDS011;6145;50.192;10.064;2023-04-08T05:41:04;11.40;;;10.20;;
12163;SDS011;6145;50.192;10.064;2023-04-08T05:43:46;12.80;;;10.23;;
12163;SDS011;6145;50.192;10.064;2023-04-08T05:47:00;14.27;;;11.33;;
12163;SDS011;6145;50.192;10.064;2023-04-08T05:50:22;16.23;;;12.33;;
12163;SDS011;6145;50.192;10.064;2023-04-08T06:14:38;14.33;;;11.80;;
12163;SDS011;6145;50.192;10.064;2023-04-08T06:17:05;11.67;;;9.90;;
12163;SDS011;6145;50.192;10.064;2023-04-08T06:19:32;13.23;;;10.87;;
12163;SDS011;6145;50.192;10.064;2023-04-08T06:22:04;12.23;;;10.50;;
12163;SDS011;6145;50.192;10.064;2023-04-08T06:24:31;11.43;;;10.23;;
12163;SDS011;6145;50.192;10.064;2023-04-08T06:26:58;14.03;;;10.03;;
12163;SDS011;6145;50.192;10.064;2023-04-08T06:29:25;12.87;;;11.57;;
12163;SDS011;6145;50.192;10.064;2023-04-08T06:31:55;12.37;;;10.57;;
12163;SDS011;6145;50.192;10.064;2023-04-08T06:34:22;11.13;;;9.93;;
12163;SDS011;6145;50.192;10.064;2023-04-08T06:36:49;11.37;;;9.83;;
12163;SDS011;6145;50.192;10.064;2023-04-08T06:39:15;10.63;;;9.50;;
12163;SDS011;6145;50.192;10.064;2023-04-08T06:41:43;8.37;;;7.57;;
12163;SDS011;6145;50.192;10.064;2023-04-08T06:44:10;16.20;;;9.47;;
12163;SDS011;6145;50.192;10.064;2023-04-08T06:46:39;10.63;;;9.30;;
12163;SDS011;6145;50.192;10.064;2023-04-08T06:49:08;9.13;;;8.10;;
12163;SDS011;6145;50.192;10.064;2023-04-08T06:51:35;10.47;;;7.83;;
12163;SDS011;6145;50.192;10.064;2023-04-08T06:54:07;10.13;;;8.07;;
12163;SDS011;6145;50.192;10.064;2023-04-08T06:56:35;8.40;;;7.30;;
12163;SDS011;6145;50.192;10.064;2023-04-08T06:59:02;11.13;;;7.80;;
12163;SDS011;6145;50.192;10.064;2023-04-08T07:01:29;10.60;;;7.43;;
12163;SDS011;6145;50.192;10.064;2023-04-08T07:03:56;7.80;;;6.87;;
12163;SDS011;6145;50.192;10.064;2023-04-08T07:06:29;9.83;;;7.63;;
12163;SDS011;6145;50.192;10.064;2023-04-08T07:08:56;10.80;;;7.90;;
12163;SDS011;6145;50.192;10.064;2023-04-08T07:11:23;8.83;;;7.30;;
12163;SDS011;6145;50.192;10.064;2023-04-08T07:13:51;8.70;;;6.33;;
12163;SDS011;6145;50.192;10.064;2023-04-08T07:16:18;8.27;;;6.80;;
12163;SDS011;6145;50.192;10.064;2023-04-08T07:18:45;7.67;;;6.00;;
12163;SDS011;6145;50.192;10.064;2023-04-08T07:21:21;7.10;;;6.10;;
12163;SDS011;6145;50.192;10.064;2023-04-08T07:23:50;7.50;;;6.40;;
12163;SDS011;6145;50.192;10.064;2023-04-08T07:26:18;11.40;;;7.13;;
12163;SDS011;6145;50.192;10.064;2023-04-08T07:28:48;8.37;;;6.77;;
12163;SDS011;6145;50.192;10.064;2023-04-08T07:31:19;9.07;;;5.93;;
12163;SDS011;6145;50.192;10.064;2023-04-08T07:33:46;7.60;;;6.23;;
12163;SDS011;6145;50.192;10.064;2023-04-08T08:21:28;7.53;;;5.57;;
12163;SDS011;6145;50.192;10.064;2023-04-08T08:23:55;8.07;;;5.60;;
12163;SDS011;6145;50.192;10.064;2023-04-08T08:26:23;8.30;;;5.93;;
12163;SDS011;6145;50.192;10.064;2023-04-08T08:28:50;5.70;;;5.10;;
12163;SDS011;6145;50.192;10.064;2023-04-08T08:31:17;6.33;;;5.17;;
12163;SDS011;6145;50.192;10.064;2023-04-08T08:33:44;6.83;;;4.87;;
12163;SDS011;6145;50.192;10.064;2023-04-08T08:36:23;7.87;;;5.20;;
12163;SDS011;6145;50.192;10.064;2023-04-08T08:38:52;6.97;;;5.30;;
12163;SDS011;6145;50.192;10.064;2023-04-08T08:41:21;6.13;;;4.73;;
12163;SDS011;6145;50.192;10.064;2023-04-08T08:43:51;5.70;;;4.63;;
12163;SDS011;6145;50.192;10.064;2023-04-08T08:46:19;5.70;;;4.80;;
12163;SDS011;6145;50.192;10.064;2023-04-08T08:48:47;5.57;;;4.27;;
12163;SDS011;6145;50.192;10.064;2023-04-08T08:51:14;6.57;;;5.10;;
12163;SDS011;6145;50.192;10.064;2023-04-08T08:53:43;6.67;;;5.03;;
12163;SDS011;6145;50.192;10.064;2023-04-08T08:56:12;6.03;;;5.10;;
12163;SDS011;6145;50.192;10.064;2023-04-08T08:58:39;4.83;;;4.03;;
12163;SDS011;6145;50.192;10.064;2023-04-08T09:04:14;4.93;;;4.43;;
12163;SDS011;6145;50.192;10.064;2023-04-08T09:06:43;5.57;;;4.37;;
12163;SDS011;6145;50.192;10.064;2023-04-08T09:09:11;5.00;;;4.53;;
12163;SDS011;6145;50.192;10.064;2023-04-08T09:11:40;5.40;;;4.70;;
12163;SDS011;6145;50.192;10.064;2023-04-08T09:14:17;5.83;;;4.80;;
12163;SDS011;6145;50.192;10.064;2023-04-08T09:16:45;5.20;;;4.20;;
12163;SDS011;6145;50.192;10.064;2023-04-08T09:19:12;4.90;;;4.40;;
12163;SDS011;6145;50.192;10.064;2023-04-08T09:21:39;4.87;;;4.27;;
12163;SDS011;6145;50.192;10.064;2023-04-08T09:24:06;4.47;;;3.93;;
12163;SDS011;6145;50.192;10.064;2023-04-08T09:26:35;4.67;;;4.20;;
12163;SDS011;6145;50.192;10.064;2023-04-08T09:29:05;15.10;;;4.97;;
12163;SDS011;6145;50.192;10.064;2023-04-08T09:31:33;5.67;;;4.70;;
12163;SDS011;6145;50.192;10.064;2023-04-08T09:34:08;7.27;;;4.60;;
12163;SDS011;6145;50.192;10.064;2023-04-08T09:36:36;5.97;;;4.47;;
12163;SDS011;6145;50.192;10.064;2023-04-08T09:39:03;6.10;;;4.10;;
12163;SDS011;6145;50.192;10.064;2023-04-08T09:41:32;4.00;;;3.60;;
12163;SDS011;6145;50.192;10.064;2023-04-08T09:44:01;5.53;;;3.80;;
12163;SDS011;6145;50.192;10.064;2023-04-08T09:46:32;4.47;;;4.07;;
12163;SDS011;6145;50.192;10.064;2023-04-08T09:49:04;4.60;;;4.20;;
12163;SDS011;6145;50.192;10.064;2023-04-08T09:51:38;6.80;;;3.80;;
12163;SDS011;6145;50.192;10.064;2023-04-08T09:54:12;6.13;;;4.43;;
12163;SDS011;6145;50.192;10.064;2023-04-08T09:56:43;5.60;;;4.77;;
12163;SDS011;6145;50.192;10.064;2023-04-08T09:59:16;4.33;;;3.93;;
12163;SDS011;6145;50.192;10.064;2023-04-08T10:01:48;5.07;;;4.57;;
12163;SDS011;6145;50.192;10.064;2023-04-08T10:04:18;4.20;;;3.80;;
12163;SDS011;6145;50.192;10.064;2023-04-08T10:06:48;4.47;;;4.07;;
12163;SDS011;6145;50.192;10.064;2023-04-08T10:09:19;5.83;;;4.43;;
12163;SDS011;6145;50.192;10.064;2023-04-08T10:11:47;5.33;;;3.87;;
12163;SDS011;6145;50.192;10.064;2023-04-08T10:14:15;5.20;;;3.80;;
12163;SDS011;6145;50.192;10.064;2023-04-08T10:16:44;4.53;;;3.90;;
12163;SDS011;6145;50.192;10.064;2023-04-08T10:27:53;3.10;;;2.80;;
12163;SDS011;6145;50.192;10.064;2023-04-08T10:33:10;3.43;;;3.13;;
12163;SDS011;6145;50.192;10.064;2023-04-08T10:35:40;4.23;;;3.60;;
12163;SDS011;6145;50.192;10.064;2023-04-08T10:38:10;4.00;;;3.40;;
12163;SDS011;6145;50.192;10.064;2023-04-08T10:40:38;3.93;;;3.10;;
12163;SDS011;6145;50.192;10.064;2023-04-08T10:43:06;3.30;;;3.00;;
12163;SDS011;6145;50.192;10.064;2023-04-08T10:45:34;4.63;;;3.17;;
12163;SDS011;6145;50.192;10.064;2023-04-08T10:48:12;4.40;;;3.27;;
12163;SDS011;6145;50.192;10.064;2023-04-08T10:50:40;3.40;;;3.00;;
12163;SDS011;6145;50.192;10.064;2023-04-08T10:53:07;3.47;;;3.17;;
12163;SDS011;6145;50.192;10.064;2023-04-08T10:55:35;3.77;;;3.40;;
12163;SDS011;6145;50.192;10.064;2023-04-08T10:58:05;4.07;;;3.37;;
12163;SDS011;6145;50.192;10.064;2023-04-08T11:00:33;3.40;;;3.07;;
12163;SDS011;6145;50.192;10.064;2023-04-08T11:03:01;4.27;;;3.67;;
12163;SDS011;6145;50.192;10.064;2023-04-08T11:05:33;4.50;;;4.10;;
12163;SDS011;6145;50.192;10.064;2023-04-08T11:08:01;3.73;;;3.30;;
12163;SDS011;6145;50.192;10.064;2023-04-08T11:10:28;3.47;;;3.17;;
12163;SDS011;6145;50.192;10.064;2023-04-08T11:12:55;4.87;;;3.33;;
12163;SDS011;6145;50.192;10.064;2023-04-08T11:15:23;3.67;;;3.37;;
12163;SDS011;6145;50.192;10.064;2023-04-08T11:17:51;3.83;;;3.10;;
12163;SDS011;6145;50.192;10.064;2023-04-08T11:20:19;4.10;;;3.70;;
12163;SDS011;6145;50.192;10.064;2023-04-08T11:22:48;3.97;;;3.57;;
12163;SDS011;6145;50.192;10.064;2023-04-08T11:25:15;7.00;;;3.37;;
12163;SDS011;6145;50.192;10.064;2023-04-08T11:27:43;3.97;;;3.67;;
12163;SDS011;6145;50.192;10.064;2023-04-08T11:30:10;4.13;;;3.73;;
12163;SDS011;6145;50.192;10.064;2023-04-08T11:32:38;4.40;;;3.73;;
12163;SDS011;6145;50.192;10.064;2023-04-08T11:35:06;3.60;;;3.30;;
12163;SDS011;6145;50.192;10.064;2023-04-08T11:37:36;3.57;;;3.27;;
12163;SDS011;6145;50.192;10.064;2023-04-08T11:40:09;4.10;;;3.67;;
12163;SDS011;6145;50.192;10.064;2023-04-08T11:42:37;6.70;;;5.83;;
12163;SDS011;6145;50.192;10.064;2023-04-08T11:45:11;4.23;;;3.67;;
12163;SDS011;6145;50.192;10.064;2023-04-08T11:47:38;6.07;;;4.07;;
12163;SDS011;6145;50.192;10.064;2023-04-08T11:50:06;5.33;;;3.87;;
12163;SDS011;6145;50.192;10.064;2023-04-08T11:52:43;3.97;;;3.27;;
12163;SDS011;6145;50.192;10.064;2023-04-08T11:55:21;3.23;;;2.83;;
12163;SDS011;6145;50.192;10.064;2023-04-08T11:57:49;4.00;;;3.03;;
12163;SDS011;6145;50.192;10.064;2023-04-08T12:00:16;3.10;;;2.70;;
12163;SDS011;6145;50.192;10.064;2023-04-08T12:02:44;2.87;;;2.40;;
12163;SDS011;6145;50.192;10.064;2023-04-08T12:05:15;2.53;;;2.30;;
12163;SDS011;6145;50.192;10.064;2023-04-08T12:07:42;2.50;;;2.30;;
12163;SDS011;6145;50.192;10.064;2023-04-08T12:10:15;2.67;;;2.47;;
12163;SDS011;6145;50.192;10.064;2023-04-08T12:12:42;3.20;;;2.90;;
12163;SDS011;6145;50.192;10.064;2023-04-08T12:15:19;3.90;;;2.70;;
12163;SDS011;6145;50.192;10.064;2023-04-08T12:17:48;2.27;;;2.07;;
12163;SDS011;6145;50.192;10.064;2023-04-08T12:20:15;3.10;;;2.40;;
12163;SDS011;6145;50.192;10.064;2023-04-08T12:22:42;2.70;;;2.50;;
12163;SDS011;6145;50.192;10.064;2023-04-08T12:25:11;2.73;;;2.53;;
12163;SDS011;6145;50.192;10.064;2023-04-08T12:27:39;2.17;;;2.03;;
12163;SDS011;6145;50.192;10.064;2023-04-08T12:30:07;2.90;;;2.63;;
12163;SDS011;6145;50.192;10.064;2023-04-08T12:32:35;3.13;;;2.83;;
12163;SDS011;6145;50.192;10.064;2023-04-08T12:35:02;2.70;;;2.50;;
12163;SDS011;6145;50.192;10.064;2023-04-08T12:37:30;2.50;;;2.30;;
12163;SDS011;6145;50.192;10.064;2023-04-08T12:39:57;2.60;;;2.40;;
12163;SDS011;6145;50.192;10.064;2023-04-08T12:42:24;2.73;;;2.53;;
12163;SDS011;6145;50.192;10.064;2023-04-08T12:44:53;2.60;;;2.40;;
12163;SDS011;6145;50.192;10.064;2023-04-08T12:47:20;2.63;;;2.43;;
12163;SDS011;6145;50.192;10.064;2023-04-08T12:49:47;2.63;;;2.40;;
12163;SDS011;6145;50.192;10.064;2023-04-08T12:52:13;4.27;;;2.97;;
12163;SDS011;6145;50.192;10.064;2023-04-08T12:54:41;3.23;;;2.93;;
12163;SDS011;6145;50.192;10.064;2023-04-08T12:57:07;4.87;;;3.10;;
12163;SDS011;6145;50.192;10.064;2023-04-08T12:59:34;3.40;;;3.10;;
12163;SDS011;6145;50.192;10.064;2023-04-08T13:02:03;3.83;;;3.13;;
12163;SDS011;6145;50.192;10.064;2023-04-08T13:04:31;4.47;;;3.17;;
12163;SDS011;6145;50.192;10.064;2023-04-08T13:07:00;3.60;;;3.17;;
12163;SDS011;6145;50.192;10.064;2023-04-08T13:09:28;3.53;;;3.23;;
12163;SDS011;6145;50.192;10.064;2023-04-08T13:11:55;3.70;;;3.40;;
12163;SDS011;6145;50.192;10.064;2023-04-08T13:14:23;4.63;;;3.83;;
12163;SDS011;6145;50.192;10.064;2023-04-08T13:16:51;3.80;;;3.50;;
12163;SDS011;6145;50.192;10.064;2023-04-08T13:19:20;3.50;;;3.20;;
12163;SDS011;6145;50.192;10.064;2023-04-08T13:21:47;3.93;;;3.60;;
12163;SDS011;6145;50.192;10.064;2023-04-08T13:24:14;3.90;;;3.50;;
12163;SDS011;6145;50.192;10.064;2023-04-08T13:26:41;3.20;;;2.90;;
12163;SDS011;6145;50.192;10.064;2023-04-08T13:29:08;4.30;;;3.10;;
12163;SDS011;6145;50.192;10.064;2023-04-08T13:31:35;4.20;;;3.80;;
12163;SDS011;6145;50.192;10.064;2023-04-08T13:34:01;4.30;;;3.47;;
12163;SDS011;6145;50.192;10.064;2023-04-08T13:36:30;3.83;;;3.30;;
12163;SDS011;6145;50.192;10.064;2023-04-08T13:38:56;3.97;;;3.57;;
12163;SDS011;6145;50.192;10.064;2023-04-08T13:41:25;4.23;;;3.83;;
12163;SDS011;6145;50.192;10.064;2023-04-08T13:43:52;6.03;;;5.07;;
12163;SDS011;6145;50.192;10.064;2023-04-08T13:46:20;4.60;;;4.20;;
12163;SDS011;6145;50.192;10.064;2023-04-08T13:48:47;4.50;;;4.10;;
12163;SDS011;6145;50.192;10.064;2023-04-08T13:51:14;4.87;;;4.37;;
12163;SDS011;6145;50.192;10.064;2023-04-08T13:53:42;5.47;;;4.47;;
12163;SDS011;6145;50.192;10.064;2023-04-08T13:56:09;6.90;;;4.97;;
12163;SDS011;6145;50.192;10.064;2023-04-08T13:58:35;5.80;;;4.43;;
12163;SDS011;6145;50.192;10.064;2023-04-08T14:01:03;5.10;;;4.60;;
12163;SDS011;6145;50.192;10.064;2023-04-08T14:03:30;4.80;;;4.30;;
12163;SDS011;6145;50.192;10.064;2023-04-08T14:05:57;5.27;;;4.30;;
12163;SDS011;6145;50.192;10.064;2023-04-08T14:08:23;4.80;;;3.87;;
12163;SDS011;6145;50.192;10.064;2023-04-08T14:10:52;4.73;;;4.33;;
12163;SDS011;6145;50.192;10.064;2023-04-08T14:13:24;5.37;;;3.47;;
12163;SDS011;6145;50.192;10.064;2023-04-08T14:18:40;4.30;;;3.90;;
12163;SDS011;6145;50.192;10.064;2023-04-08T14:21:07;4.07;;;3.53;;
12163;SDS011;6145;50.192;10.064;2023-04-08T14:23:34;4.03;;;3.63;;
12163;SDS011;6145;50.192;10.064;2023-04-08T14:26:02;4.50;;;3.40;;
12163;SDS011;6145;50.192;10.064;2023-04-08T14:28:29;3.47;;;3.17;;
12163;SDS011;6145;50.192;10.064;2023-04-08T14:30:57;3.40;;;3.10;;
12163;SDS011;6145;50.192;10.064;2023-04-08T14:33:24;4.23;;;3.30;;
12163;SDS011;6145;50.192;10.064;2023-04-08T14:35:51;4.57;;;4.17;;
12163;SDS011;6145;50.192;10.064;2023-04-08T14:38:18;3.93;;;3.50;;
12163;SDS011;6145;50.192;10.064;2023-04-08T14:40:45;4.10;;;3.60;;
12163;SDS011;6145;50.192;10.064;2023-04-08T14:43:13;6.07;;;3.53;;
12163;SDS011;6145;50.192;10.064;2023-04-08T14:45:40;3.13;;;2.70;;
12163;SDS011;6145;50.192;10.064;2023-04-08T14:48:08;3.60;;;3.30;;
12163;SDS011;6145;50.192;10.064;2023-04-08T14:50:35;3.37;;;3.03;;
12163;SDS011;6145;50.192;10.064;2023-04-08T14:53:02;4.27;;;3.30;;
12163;SDS011;6145;50.192;10.064;2023-04-08T14:55:29;3.47;;;3.17;;
12163;SDS011;6145;50.192;10.064;2023-04-08T14:57:57;4.03;;;3.00;;
12163;SDS011;6145;50.192;10.064;2023-04-08T15:00:25;3.50;;;3.20;;
12163;SDS011;6145;50.192;10.064;2023-04-08T15:02:52;3.80;;;3.40;;
12163;SDS011;6145;50.192;10.064;2023-04-08T15:05:24;4.13;;;3.73;;
12163;SDS011;6145;50.192;10.064;2023-04-08T15:07:50;4.37;;;3.97;;
12163;SDS011;6145;50.192;10.064;2023-04-08T15:10:18;4.10;;;3.70;;
12163;SDS011;6145;50.192;10.064;2023-04-08T15:12:45;4.47;;;3.30;;
12163;SDS011;6145;50.192;10.064;2023-04-08T15:15:19;3.87;;;3.53;;
12163;SDS011;6145;50.192;10.064;2023-04-08T15:17:48;3.17;;;2.87;;
12163;SDS011;6145;50.192;10.064;2023-04-08T15:20:15;4.07;;;3.67;;
12163;SDS011;6145;50.192;10.064;2023-04-08T15:22:45;3.30;;;2.97;;
12163;SDS011;6145;50.192;10.064;2023-04-08T15:25:12;3.63;;;3.27;;
12163;SDS011;6145;50.192;10.064;2023-04-08T15:27:39;3.97;;;3.33;;
12163;SDS011;6145;50.192;10.064;2023-04-08T15:30:07;3.77;;;3.47;;
12163;SDS011;6145;50.192;10.064;2023-04-08T15:32:34;3.50;;;3.17;;
12163;SDS011;6145;50.192;10.064;2023-04-08T15:35:03;4.20;;;3.67;;
12163;SDS011;6145;50.192;10.064;2023-04-08T15:37:30;3.53;;;3.23;;
12163;SDS011;6145;50.192;10.064;2023-04-08T15:39:57;3.90;;;3.37;;
12163;SDS011;6145;50.192;10.064;2023-04-08T15:42:24;3.90;;;3.23;;
12163;SDS011;6145;50.192;10.064;2023-04-08T15:44:53;4.83;;;3.60;;
12163;SDS011;6145;50.192;10.064;2023-04-08T15:47:20;3.77;;;3.30;;
12163;SDS011;6145;50.192;10.064;2023-04-08T15:49:47;3.57;;;3.27;;
12163;SDS011;6145;50.192;10.064;2023-04-08T15:52:18;3.47;;;3.07;;
12163;SDS011;6145;50.192;10.064;2023-04-08T15:54:45;3.80;;;3.17;;
12163;SDS011;6145;50.192;10.064;2023-04-08T15:57:12;3.60;;;3.30;;
12163;SDS011;6145;50.192;10.064;2023-04-08T15:59:39;4.03;;;3.63;;
12163;SDS011;6145;50.192;10.064;2023-04-08T16:02:06;4.43;;;3.90;;
12163;SDS011;6145;50.192;10.064;2023-04-08T16:04:32;4.13;;;3.73;;
12163;SDS011;6145;50.192;10.064;2023-04-08T16:06:59;5.33;;;4.00;;
12163;SDS011;6145;50.192;10.064;2023-04-08T16:09:27;4.83;;;4.23;;
12163;SDS011;6145;50.192;10.064;2023-04-08T16:11:55;4.33;;;3.93;;
12163;SDS011;6145;50.192;10.064;2023-04-08T16:14:22;4.13;;;3.67;;
12163;SDS011;6145;50.192;10.064;2023-04-08T16:16:48;4.40;;;3.33;;
12163;SDS011;6145;50.192;10.064;2023-04-08T16:19:16;3.67;;;3.37;;
12163;SDS011;6145;50.192;10.064;2023-04-08T16:21:46;4.27;;;3.70;;
12163;SDS011;6145;50.192;10.064;2023-04-08T16:24:13;4.70;;;3.33;;
12163;SDS011;6145;50.192;10.064;2023-04-08T16:26:41;5.20;;;2.90;;
12163;SDS011;6145;50.192;10.064;2023-04-08T16:29:08;4.30;;;3.43;;
12163;SDS011;6145;50.192;10.064;2023-04-08T16:31:35;4.43;;;4.00;;
12163;SDS011;6145;50.192;10.064;2023-04-08T16:34:02;4.67;;;3.97;;
12163;SDS011;6145;50.192;10.064;2023-04-08T16:36:29;4.10;;;3.70;;
12163;SDS011;6145;50.192;10.064;2023-04-08T16:38:56;3.93;;;3.53;;
12163;SDS011;6145;50.192;10.064;2023-04-08T16:41:23;4.87;;;4.33;;
12163;SDS011;6145;50.192;10.064;2023-04-08T16:43:51;4.87;;;4.03;;
12163;SDS011;6145;50.192;10.064;2023-04-08T16:46:18;6.00;;;4.77;;
12163;SDS011;6145;50.192;10.064;2023-04-08T16:48:47;5.57;;;4.80;;
12163;SDS011;6145;50.192;10.064;2023-04-08T16:51:14;5.53;;;4.57;;
12163;SDS011;6145;50.192;10.064;2023-04-08T16:53:41;5.30;;;4.00;;
12163;SDS011;6145;50.192;10.064;2023-04-08T16:56:12;5.97;;;5.10;;
12163;SDS011;6145;50.192;10.064;2023-04-08T16:58:39;6.77;;;5.37;;
12163;SDS011;6145;50.192;10.064;2023-04-08T17:01:08;6.00;;;4.90;;
12163;SDS011;6145;50.192;10.064;2023-04-08T17:03:35;6.77;;;5.50;;
12163;SDS011;6145;50.192;10.064;2023-04-08T17:06:07;6.20;;;5.60;;
12163;SDS011;6145;50.192;10.064;2023-04-08T17:08:34;7.27;;;5.60;;
12163;SDS011;6145;50.192;10.064;2023-04-08T17:11:05;7.67;;;5.53;;
12163;SDS011;6145;50.192;10.064;2023-04-08T17:13:34;9.30;;;6.27;;
12163;SDS011;6145;50.192;10.064;2023-04-08T17:16:01;8.63;;;6.53;;
12163;SDS011;6145;50.192;10.064;2023-04-08T17:18:29;9.73;;;7.00;;
12163;SDS011;6145;50.192;10.064;2023-04-08T17:20:56;8.60;;;6.70;;
12163;SDS011;6145;50.192;10.064;2023-04-08T17:23:23;7.77;;;5.87;;
12163;SDS011;6145;50.192;10.064;2023-04-08T17:25:50;6.57;;;5.50;;
12163;SDS011;6145;50.192;10.064;2023-04-08T17:28:17;8.17;;;5.73;;
12163;SDS011;6145;50.192;10.064;2023-04-08T17:30:44;8.03;;;5.87;;
12163;SDS011;6145;50.192;10.064;2023-04-08T17:33:12;7.40;;;5.87;;
12163;SDS011;6145;50.192;10.064;2023-04-08T17:35:43;7.43;;;5.90;;
12163;SDS011;6145;50.192;10.064;2023-04-08T17:38:10;8.70;;;6.20;;
12163;SDS011;6145;50.192;10.064;2023-04-08T17:40:37;7.90;;;5.57;;
12163;SDS011;6145;50.192;10.064;2023-04-08T17:43:04;8.23;;;5.80;;
12163;SDS011;6145;50.192;10.064;2023-04-08T17:45:33;7.70;;;6.13;;
12163;SDS011;6145;50.192;10.064;2023-04-08T17:48:00;7.73;;;5.93;;
12163;SDS011;6145;50.192;10.064;2023-04-08T17:50:28;7.73;;;6.20;;
12163;SDS011;6145;50.192;10.064;2023-04-08T17:52:57;8.03;;;5.93;;
12163;SDS011;6145;50.192;10.064;2023-04-08T17:55:24;8.07;;;6.27;;
12163;SDS011;6145;50.192;10.064;2023-04-08T17:57:51;8.93;;;6.60;;
12163;SDS011;6145;50.192;10.064;2023-04-08T18:00:23;7.80;;;6.17;;
12163;SDS011;6145;50.192;10.064;2023-04-08T18:02:50;7.83;;;6.17;;
12163;SDS011;6145;50.192;10.064;2023-04-08T18:05:17;7.60;;;5.93;;
12163;SDS011;6145;50.192;10.064;2023-04-08T18:07:45;7.67;;;6.23;;
12163;SDS011;6145;50.192;10.064;2023-04-08T18:10:13;9.27;;;7.00;;
12163;SDS011;6145;50.192;10.064;2023-04-08T18:12:47;10.03;;;7.40;;
12163;SDS011;6145;50.192;10.064;2023-04-08T18:15:24;8.60;;;5.97;;
12163;SDS011;6145;50.192;10.064;2023-04-08T18:20:33;11.47;;;8.07;;
12163;SDS011;6145;50.192;10.064;2023-04-08T18:23:00;7.70;;;6.17;;
12163;SDS011;6145;50.192;10.064;2023-04-08T18:25:31;9.67;;;6.17;;
12163;SDS011;6145;50.192;10.064;2023-04-08T18:27:58;8.57;;;7.03;;
12163;SDS011;6145;50.192;10.064;2023-04-08T18:30:30;10.67;;;7.43;;
12163;SDS011;6145;50.192;10.064;2023-04-08T18:32:57;8.67;;;6.90;;
12163;SDS011;6145;50.192;10.064;2023-04-08T18:35:25;8.20;;;7.13;;
12163;SDS011;6145;50.192;10.064;2023-04-08T18:37:52;8.57;;;7.20;;
12163;SDS011;6145;50.192;10.064;2023-04-08T18:40:20;10.63;;;7.30;;
12163;SDS011;6145;50.192;10.064;2023-04-08T18:42:50;9.73;;;7.13;;
12163;SDS011;6145;50.192;10.064;2023-04-08T18:45:17;9.60;;;7.50;;
12163;SDS011;6145;50.192;10.064;2023-04-08T18:47:44;8.43;;;6.93;;
12163;SDS011;6145;50.192;10.064;2023-04-08T18:50:11;8.20;;;6.80;;
12163;SDS011;6145;50.192;10.064;2023-04-08T18:52:38;11.13;;;8.00;;
12163;SDS011;6145;50.192;10.064;2023-04-08T18:55:06;9.43;;;7.70;;
12163;SDS011;6145;50.192;10.064;2023-04-08T18:57:33;8.20;;;6.90;;
12163;SDS011;6145;50.192;10.064;2023-04-08T19:02:34;9.33;;;7.47;;
12163;SDS011;6145;50.192;10.064;2023-04-08T19:05:01;9.73;;;8.00;;
12163;SDS011;6145;50.192;10.064;2023-04-08T19:07:28;10.50;;;8.60;;
12163;SDS011;6145;50.192;10.064;2023-04-08T19:09:55;14.13;;;10.97;;
12163;SDS011;6145;50.192;10.064;2023-04-08T19:12:23;11.47;;;8.60;;
12163;SDS011;6145;50.192;10.064;2023-04-08T19:14:50;12.90;;;10.70;;
12163;SDS011;6145;50.192;10.064;2023-04-08T19:17:18;14.53;;;10.13;;
12163;SDS011;6145;50.192;10.064;2023-04-08T19:19:45;16.67;;;10.97;;
12163;SDS011;6145;50.192;10.064;2023-04-08T19:22:12;14.57;;;9.73;;
12163;SDS011;6145;50.192;10.064;2023-04-08T19:24:40;13.30;;;9.70;;
12163;SDS011;6145;50.192;10.064;2023-04-08T19:27:07;11.87;;;9.93;;
12163;SDS011;6145;50.192;10.064;2023-04-08T19:29:34;11.77;;;9.37;;
12163;SDS011;6145;50.192;10.064;2023-04-08T19:32:01;13.33;;;9.30;;
12163;SDS011;6145;50.192;10.064;2023-04-08T19:34:30;14.33;;;10.30;;
12163;SDS011;6145;50.192;10.064;2023-04-08T19:36:56;13.97;;;9.87;;
12163;SDS011;6145;50.192;10.064;2023-04-08T19:39:23;13.93;;;10.07;;
12163;SDS011;6145;50.192;10.064;2023-04-08T19:41:50;11.70;;;9.03;;
12163;SDS011;6145;50.192;10.064;2023-04-08T19:44:17;11.90;;;8.40;;
12163;SDS011;6145;50.192;10.064;2023-04-08T19:46:45;12.33;;;9.30;;
12163;SDS011;6145;50.192;10.064;2023-04-08T19:49:18;14.27;;;9.83;;
12163;SDS011;6145;50.192;10.064;2023-04-08T19:51:47;12.47;;;9.33;;
12163;SDS011;6145;50.192;10.064;2023-04-08T19:54:14;14.10;;;9.97;;
12163;SDS011;6145;50.192;10.064;2023-04-08T19:56:41;12.60;;;9.77;;
12163;SDS011;6145;50.192;10.064;2023-04-08T19:59:08;13.63;;;9.97;;
12163;SDS011;6145;50.192;10.064;2023-04-08T20:04:53;15.57;;;10.57;;
12163;SDS011;6145;50.192;10.064;2023-04-08T20:07:22;13.60;;;10.40;;
12163;SDS011;6145;50.192;10.064;2023-04-08T20:09:49;13.67;;;9.60;;
12163;SDS011;6145;50.192;10.064;2023-04-08T20:12:16;11.33;;;9.47;;
12163;SDS011;6145;50.192;10.064;2023-04-08T20:14:43;12.90;;;9.30;;
12163;SDS011;6145;50.192;10.064;2023-04-08T20:17:11;12.33;;;9.53;;
12163;SDS011;6145;50.192;10.064;2023-04-08T20:19:39;13.87;;;9.70;;
12163;SDS011;6145;50.192;10.064;2023-04-08T20:22:06;11.53;;;9.80;;
12163;SDS011;6145;50.192;10.064;2023-04-08T20:24:34;12.33;;;9.20;;
12163;SDS011;6145;50.192;10.064;2023-04-08T20:27:04;13.47;;;9.97;;
12163;SDS011;6145;50.192;10.064;2023-04-08T20:29:31;10.87;;;8.80;;
12163;SDS011;6145;50.192;10.064;2023-04-08T20:31:58;13.10;;;9.53;;
12163;SDS011;6145;50.192;10.064;2023-04-08T20:34:25;14.03;;;9.53;;
12163;SDS011;6145;50.192;10.064;2023-04-08T20:36:52;15.27;;;11.30;;
12163;SDS011;6145;50.192;10.064;2023-04-08T20:39:20;15.27;;;11.20;;
12163;SDS011;6145;50.192;10.064;2023-04-08T20:41:54;16.27;;;10.93;;
12163;SDS011;6145;50.192;10.064;2023-04-08T20:44:22;16.03;;;11.60;;
12163;SDS011;6145;50.192;10.064;2023-04-08T20:46:48;14.53;;;10.53;;
12163;SDS011;6145;50.192;10.064;2023-04-08T20:49:15;16.10;;;10.33;;
12163;SDS011;6145;50.192;10.064;2023-04-08T20:51:42;16.23;;;10.87;;
12163;SDS011;6145;50.192;10.064;2023-04-08T20:54:09;16.33;;;10.20;;
12163;SDS011;6145;50.192;10.064;2023-04-08T20:56:36;17.70;;;10.53;;
12163;SDS011;6145;50.192;10.064;2023-04-08T20:59:05;15.00;;;10.20;;
12163;SDS011;6145;50.192;10.064;2023-04-08T21:01:34;12.50;;;9.13;;
12163;SDS011;6145;50.192;10.064;2023-04-08T21:04:01;13.77;;;10.20;;
12163;SDS011;6145;50.192;10.064;2023-04-08T21:06:28;14.57;;;10.80;;
12163;SDS011;6145;50.192;10.064;2023-04-08T21:08:56;13.57;;;10.47;;
12163;SDS011;6145;50.192;10.064;2023-04-08T21:11:23;14.23;;;9.90;;
12163;SDS011;6145;50.192;10.064;2023-04-08T21:13:52;12.23;;;9.47;;
12163;SDS011;6145;50.192;10.064;2023-04-08T21:16:23;13.03;;;9.90;;
12163;SDS011;6145;50.192;10.064;2023-04-08T21:18:52;13.13;;;9.67;;
12163;SDS011;6145;50.192;10.064;2023-04-08T21:21:21;14.80;;;10.23;;
12163;SDS011;6145;50.192;10.064;2023-04-08T21:23:48;12.97;;;9.50;;
12163;SDS011;6145;50.192;10.064;2023-04-08T21:26:15;14.10;;;10.83;;
12163;SDS011;6145;50.192;10.064;2023-04-08T21:28:42;15.13;;;11.00;;
12163;SDS011;6145;50.192;10.064;2023-04-08T21:31:09;16.80;;;11.73;;
12163;SDS011;6145;50.192;10.064;2023-04-08T21:33:37;15.47;;;10.10;;
12163;SDS011;6145;50.192;10.064;2023-04-08T21:36:04;15.20;;;11.03;;
12163;SDS011;6145;50.192;10.064;2023-04-08T21:38:32;15.53;;;10.63;;
12163;SDS011;6145;50.192;10.064;2023-04-08T21:40:59;15.63;;;10.70;;
12163;SDS011;6145;50.192;10.064;2023-04-08T21:43:26;14.93;;;10.20;;
12163;SDS011;6145;50.192;10.064;2023-04-08T21:45:53;16.47;;;11.80;;
12163;SDS011;6145;50.192;10.064;2023-04-08T21:48:21;16.33;;;11.87;;
12163;SDS011;6145;50.192;10.064;2023-04-08T21:50:49;17.73;;;11.73;;
12163;SDS011;6145;50.192;10.064;2023-04-08T21:53:17;13.67;;;10.67;;
12163;SDS011;6145;50.192;10.064;2023-04-08T21:55:44;16.03;;;11.43;;
12163;SDS011;6145;50.192;10.064;2023-04-08T21:58:11;16.70;;;11.40;;
12163;SDS011;6145;50.192;10.064;2023-04-08T22:00:38;17.83;;;12.17;;